sensor_id;sensor_type;location;lat;lon;timestamp;P1;durP1;ratioP1;P2;durP2;ratioP2
21183;SDS011;18176;49.502;11.754;2023-04-29T00:00:54;13.07;;;10.20;;
21183;SDS011;18176;49.502;11.754;2023-04-29T00:04:55;12.33;;;9.20;;
21183;SDS011;18176;49.502;11.754;2023-04-29T00:08:58;14.00;;;10.07;;
21183;SDS011;18176;49.502;11.754;2023-04-29T00:13:00;11.63;;;9.30;;
21183;SDS011;18176;49.502;11.754;2023-04-29T00:17:00;34.67;;;24.03;;
21183;SDS011;18176;49.502;11.754;2023-04-29T00:21:01;34.17;;;23.00;;
21183;SDS011;18176;49.502;11.754;2023-04-29T00:25:04;41.13;;;25.33;;
21183;SDS011;18176;49.502;11.754;2023-04-29T00:29:07;30.47;;;21.90;;
21183;SDS011;18176;49.502;11.754;2023-04-29T00:33:09;29.47;;;20.17;;
21183;SDS011;18176;49.502;11.754;2023-04-29T00:37:09;32.20;;;21.67;;
21183;SDS011;18176;49.502;11.754;2023-04-29T00:41:12;31.33;;;20.67;;
21183;SDS011;18176;49.502;11.754;2023-04-29T00:45:13;29.10;;;20.70;;
21183;SDS011;18176;49.502;11.754;2023-04-29T00:49:13;29.13;;;20.17;;
21183;SDS011;18176;49.502;11.754;2023-04-29T00:53:14;19.67;;;15.60;;
21183;SDS011;18176;49.502;11.754;2023-04-29T00:57:17;21.07;;;15.73;;
21183;SDS011;18176;49.502;11.754;2023-04-29T01:01:18;21.80;;;15.90;;
21183;SDS011;18176;49.502;11.754;2023-04-29T01:05:19;18.30;;;13.93;;
21183;SDS011;18176;49.502;11.754;2023-04-29T01:09:24;18.27;;;13.27;;
21183;SDS011;18176;49.502;11.754;2023-04-29T01:13:51;18.47;;;13.27;;
21183;SDS011;18176;49.502;11.754;2023-04-29T01:17:59;21.53;;;15.23;;
21183;SDS011;18176;49.502;11.754;2023-04-29T01:22:08;20.03;;;15.23;;
21183;SDS011;18176;49.502;11.754;2023-04-29T01:26:12;27.87;;;20.40;;
21183;SDS011;18176;49.502;11.754;2023-04-29T01:30:38;30.57;;;19.60;;
21183;SDS011;18176;49.502;11.754;2023-04-29T01:34:50;27.93;;;20.77;;
21183;SDS011;18176;49.502;11.754;2023-04-29T01:39:02;24.17;;;17.63;;
21183;SDS011;18176;49.502;11.754;2023-04-29T01:43:19;19.83;;;14.30;;
21183;SDS011;18176;49.502;11.754;2023-04-29T01:47:24;15.53;;;12.07;;
21183;SDS011;18176;49.502;11.754;2023-04-29T01:51:25;17.47;;;12.23;;
21183;SDS011;18176;49.502;11.754;2023-04-29T01:55:26;13.80;;;11.30;;
21183;SDS011;18176;49.502;11.754;2023-04-29T01:59:46;12.97;;;10.17;;
21183;SDS011;18176;49.502;11.754;2023-04-29T02:04:05;11.93;;;9.77;;
21183;SDS011;18176;49.502;11.754;2023-04-29T02:08:06;12.03;;;10.27;;
21183;SDS011;18176;49.502;11.754;2023-04-29T02:12:10;9.97;;;8.50;;
21183;SDS011;18176;49.502;11.754;2023-04-29T02:16:13;11.60;;;9.70;;
21183;SDS011;18176;49.502;11.754;2023-04-29T02:20:21;12.03;;;9.33;;
21183;SDS011;18176;49.502;11.754;2023-04-29T02:24:22;9.43;;;8.27;;
21183;SDS011;18176;49.502;11.754;2023-04-29T02:28:23;9.23;;;8.17;;
21183;SDS011;18176;49.502;11.754;2023-04-29T02:32:26;11.00;;;9.27;;
21183;SDS011;18176;49.502;11.754;2023-04-29T02:36:27;11.47;;;9.10;;
21183;SDS011;18176;49.502;11.754;2023-04-29T02:40:27;10.80;;;9.40;;
21183;SDS011;18176;49.502;11.754;2023-04-29T02:44:28;12.17;;;9.00;;
21183;SDS011;18176;49.502;11.754;2023-04-29T02:48:32;10.03;;;8.87;;
21183;SDS011;18176;49.502;11.754;2023-04-29T02:52:33;8.83;;;7.93;;
21183;SDS011;18176;49.502;11.754;2023-04-29T02:56:34;10.73;;;8.63;;
21183;SDS011;18176;49.502;11.754;2023-04-29T03:00:35;10.93;;;8.70;;
21183;SDS011;18176;49.502;11.754;2023-04-29T03:04:38;9.07;;;8.07;;
21183;SDS011;18176;49.502;11.754;2023-04-29T03:08:42;12.23;;;8.97;;
21183;SDS011;18176;49.502;11.754;2023-04-29T03:12:42;12.17;;;9.13;;
21183;SDS011;18176;49.502;11.754;2023-04-29T03:16:44;12.30;;;8.80;;
21183;SDS011;18176;49.502;11.754;2023-04-29T03:20:47;10.77;;;8.70;;
21183;SDS011;18176;49.502;11.754;2023-04-29T03:24:47;13.40;;;9.27;;
21183;SDS011;18176;49.502;11.754;2023-04-29T03:28:49;15.10;;;9.10;;
21183;SDS011;18176;49.502;11.754;2023-04-29T03:32:49;9.37;;;8.37;;
21183;SDS011;18176;49.502;11.754;2023-04-29T03:36:53;9.37;;;7.40;;
21183;SDS011;18176;49.502;11.754;2023-04-29T03:40:53;11.00;;;8.00;;
21183;SDS011;18176;49.502;11.754;2023-04-29T03:44:54;17.73;;;11.10;;
21183;SDS011;18176;49.502;11.754;2023-04-29T03:48:54;13.37;;;9.60;;
21183;SDS011;18176;49.502;11.754;2023-04-29T03:52:57;12.97;;;10.50;;
21183;SDS011;18176;49.502;11.754;2023-04-29T03:56:59;12.27;;;10.17;;
21183;SDS011;18176;49.502;11.754;2023-04-29T04:01:00;11.17;;;9.67;;
21183;SDS011;18176;49.502;11.754;2023-04-29T04:05:08;10.07;;;8.30;;
21183;SDS011;18176;49.502;11.754;2023-04-29T04:09:15;10.83;;;8.87;;
21183;SDS011;18176;49.502;11.754;2023-04-29T04:13:16;11.37;;;9.63;;
21183;SDS011;18176;49.502;11.754;2023-04-29T04:17:17;11.40;;;9.47;;
21183;SDS011;18176;49.502;11.754;2023-04-29T04:21:18;11.87;;;9.77;;
21183;SDS011;18176;49.502;11.754;2023-04-29T04:25:31;14.00;;;9.77;;
21183;SDS011;18176;49.502;11.754;2023-04-29T04:29:53;13.47;;;10.43;;
21183;SDS011;18176;49.502;11.754;2023-04-29T04:33:59;11.87;;;9.97;;
21183;SDS011;18176;49.502;11.754;2023-04-29T04:38:01;11.73;;;9.37;;
21183;SDS011;18176;49.502;11.754;2023-04-29T04:42:04;10.93;;;9.53;;
21183;SDS011;18176;49.502;11.754;2023-04-29T04:46:11;12.10;;;9.70;;
21183;SDS011;18176;49.502;11.754;2023-04-29T04:50:31;12.53;;;10.17;;
21183;SDS011;18176;49.502;11.754;2023-04-29T04:54:32;13.13;;;10.87;;
21183;SDS011;18176;49.502;11.754;2023-04-29T04:58:52;15.63;;;11.77;;
21183;SDS011;18176;49.502;11.754;2023-04-29T05:02:52;16.93;;;11.83;;
21183;SDS011;18176;49.502;11.754;2023-04-29T05:06:53;15.50;;;11.97;;
21183;SDS011;18176;49.502;11.754;2023-04-29T05:10:58;15.70;;;12.03;;
21183;SDS011;18176;49.502;11.754;2023-04-29T05:15:01;15.23;;;11.70;;
21183;SDS011;18176;49.502;11.754;2023-04-29T05:19:03;15.43;;;11.53;;
21183;SDS011;18176;49.502;11.754;2023-04-29T05:23:08;17.83;;;11.83;;
21183;SDS011;18176;49.502;11.754;2023-04-29T05:27:10;14.20;;;10.80;;
21183;SDS011;18176;49.502;11.754;2023-04-29T05:31:13;14.27;;;11.40;;
21183;SDS011;18176;49.502;11.754;2023-04-29T05:35:14;18.30;;;11.27;;
21183;SDS011;18176;49.502;11.754;2023-04-29T05:39:14;12.80;;;11.07;;
21183;SDS011;18176;49.502;11.754;2023-04-29T05:43:23;13.43;;;11.20;;
21183;SDS011;18176;49.502;11.754;2023-04-29T05:47:27;12.93;;;10.03;;
21183;SDS011;18176;49.502;11.754;2023-04-29T05:51:28;13.53;;;10.43;;
21183;SDS011;18176;49.502;11.754;2023-04-29T05:55:28;12.13;;;9.53;;
21183;SDS011;18176;49.502;11.754;2023-04-29T05:59:28;10.20;;;8.57;;
21183;SDS011;18176;49.502;11.754;2023-04-29T06:03:35;11.23;;;8.00;;
21183;SDS011;18176;49.502;11.754;2023-04-29T06:07:57;9.70;;;7.83;;
21183;SDS011;18176;49.502;11.754;2023-04-29T06:12:13;8.30;;;6.73;;
21183;SDS011;18176;49.502;11.754;2023-04-29T06:16:15;8.67;;;6.80;;
21183;SDS011;18176;49.502;11.754;2023-04-29T06:20:19;16.10;;;10.20;;
21183;SDS011;18176;49.502;11.754;2023-04-29T06:24:21;8.05;;;6.47;;
21183;SDS011;18176;49.502;11.754;2023-04-29T06:28:22;7.53;;;6.30;;
21183;SDS011;18176;49.502;11.754;2023-04-29T06:32:22;8.85;;;6.50;;
21183;SDS011;18176;49.502;11.754;2023-04-29T06:36:25;11.77;;;7.28;;
21183;SDS011;18176;49.502;11.754;2023-04-29T06:40:45;7.90;;;6.35;;
21183;SDS011;18176;49.502;11.754;2023-04-29T06:45:05;9.38;;;6.40;;
21183;SDS011;18176;49.502;11.754;2023-04-29T06:49:09;10.55;;;6.95;;
21183;SDS011;18176;49.502;11.754;2023-04-29T06:53:12;8.35;;;6.55;;
21183;SDS011;18176;49.502;11.754;2023-04-29T06:57:13;6.78;;;5.90;;
21183;SDS011;18176;49.502;11.754;2023-04-29T07:01:14;6.90;;;6.20;;
21183;SDS011;18176;49.502;11.754;2023-04-29T07:05:15;7.65;;;5.80;;
21183;SDS011;18176;49.502;11.754;2023-04-29T07:09:18;6.93;;;6.00;;
21183;SDS011;18176;49.502;11.754;2023-04-29T07:13:19;5.95;;;5.35;;
21183;SDS011;18176;49.502;11.754;2023-04-29T07:17:19;6.28;;;5.68;;
21183;SDS011;18176;49.502;11.754;2023-04-29T07:21:19;6.38;;;5.47;;
21183;SDS011;18176;49.502;11.754;2023-04-29T07:25:22;6.72;;;5.47;;
21183;SDS011;18176;49.502;11.754;2023-04-29T07:29:24;7.32;;;5.75;;
21183;SDS011;18176;49.502;11.754;2023-04-29T07:33:25;7.28;;;5.90;;
21183;SDS011;18176;49.502;11.754;2023-04-29T07:37:26;6.72;;;5.43;;
21183;SDS011;18176;49.502;11.754;2023-04-29T07:41:29;8.15;;;6.25;;
21183;SDS011;18176;49.502;11.754;2023-04-29T07:45:29;7.00;;;6.00;;
21183;SDS011;18176;49.502;11.754;2023-04-29T07:49:30;8.80;;;6.47;;
21183;SDS011;18176;49.502;11.754;2023-04-29T07:53:31;8.32;;;6.50;;
21183;SDS011;18176;49.502;11.754;2023-04-29T07:57:34;8.70;;;6.53;;
21183;SDS011;18176;49.502;11.754;2023-04-29T08:01:34;7.40;;;6.63;;
21183;SDS011;18176;49.502;11.754;2023-04-29T08:05:35;7.18;;;6.47;;
21183;SDS011;18176;49.502;11.754;2023-04-29T08:09:35;8.05;;;6.43;;
21183;SDS011;18176;49.502;11.754;2023-04-29T08:13:41;7.40;;;5.90;;
21183;SDS011;18176;49.502;11.754;2023-04-29T08:17:41;6.75;;;5.90;;
21183;SDS011;18176;49.502;11.754;2023-04-29T08:21:41;8.55;;;5.65;;
21183;SDS011;18176;49.502;11.754;2023-04-29T08:25:41;6.47;;;5.78;;
21183;SDS011;18176;49.502;11.754;2023-04-29T08:29:44;8.52;;;6.60;;
21183;SDS011;18176;49.502;11.754;2023-04-29T08:33:45;6.80;;;5.60;;
21183;SDS011;18176;49.502;11.754;2023-04-29T08:37:45;9.10;;;6.28;;
21183;SDS011;18176;49.502;11.754;2023-04-29T08:41:45;7.82;;;6.40;;
21183;SDS011;18176;49.502;11.754;2023-04-29T08:45:50;8.02;;;5.60;;
21183;SDS011;18176;49.502;11.754;2023-04-29T08:49:52;5.97;;;5.30;;
21183;SDS011;18176;49.502;11.754;2023-04-29T08:53:52;7.70;;;5.30;;
21183;SDS011;18176;49.502;11.754;2023-04-29T08:57:54;6.78;;;5.05;;
21183;SDS011;18176;49.502;11.754;2023-04-29T09:01:58;6.95;;;4.60;;
21183;SDS011;18176;49.502;11.754;2023-04-29T09:05:59;5.22;;;4.57;;
21183;SDS011;18176;49.502;11.754;2023-04-29T09:10:03;4.88;;;4.32;;
21183;SDS011;18176;49.502;11.754;2023-04-29T09:14:07;5.00;;;4.50;;
21183;SDS011;18176;49.502;11.754;2023-04-29T09:18:10;4.40;;;4.00;;
21183;SDS011;18176;49.502;11.754;2023-04-29T09:22:10;4.57;;;3.72;;
21183;SDS011;18176;49.502;11.754;2023-04-29T09:26:10;6.20;;;4.13;;
21183;SDS011;18176;49.502;11.754;2023-04-29T09:30:12;4.20;;;3.67;;
21183;SDS011;18176;49.502;11.754;2023-04-29T09:34:18;4.47;;;3.83;;
21183;SDS011;18176;49.502;11.754;2023-04-29T09:38:33;3.85;;;3.45;;
21183;SDS011;18176;49.502;11.754;2023-04-29T09:42:40;3.90;;;3.47;;
21183;SDS011;18176;49.502;11.754;2023-04-29T09:46:41;3.70;;;3.40;;
21183;SDS011;18176;49.502;11.754;2023-04-29T09:50:57;5.03;;;3.75;;
21183;SDS011;18176;49.502;11.754;2023-04-29T09:55:03;4.20;;;3.40;;
21183;SDS011;18176;49.502;11.754;2023-04-29T09:59:06;3.33;;;3.03;;
21183;SDS011;18176;49.502;11.754;2023-04-29T10:03:07;4.10;;;3.67;;
21183;SDS011;18176;49.502;11.754;2023-04-29T10:07:11;5.53;;;3.70;;
21183;SDS011;18176;49.502;11.754;2023-04-29T10:11:14;4.63;;;3.92;;
21183;SDS011;18176;49.502;11.754;2023-04-29T10:15:19;5.60;;;3.63;;
21183;SDS011;18176;49.502;11.754;2023-04-29T10:19:28;8.25;;;3.40;;
21183;SDS011;18176;49.502;11.754;2023-04-29T10:23:36;4.03;;;3.63;;
21183;SDS011;18176;49.502;11.754;2023-04-29T10:27:37;4.38;;;3.65;;
21183;SDS011;18176;49.502;11.754;2023-04-29T10:31:41;7.68;;;4.10;;
21183;SDS011;18176;49.502;11.754;2023-04-29T10:35:43;5.25;;;4.13;;
21183;SDS011;18176;49.502;11.754;2023-04-29T10:39:49;5.53;;;4.63;;
21183;SDS011;18176;49.502;11.754;2023-04-29T10:43:59;4.03;;;3.63;;
21183;SDS011;18176;49.502;11.754;2023-04-29T10:48:12;4.63;;;3.90;;
21183;SDS011;18176;49.502;11.754;2023-04-29T10:52:17;4.85;;;3.75;;
21183;SDS011;18176;49.502;11.754;2023-04-29T10:56:20;5.63;;;3.72;;
21183;SDS011;18176;49.502;11.754;2023-04-29T11:00:20;4.85;;;3.67;;
21183;SDS011;18176;49.502;11.754;2023-04-29T11:04:24;4.30;;;3.50;;
21183;SDS011;18176;49.502;11.754;2023-04-29T11:08:24;4.03;;;3.63;;
21183;SDS011;18176;49.502;11.754;2023-04-29T11:12:27;3.70;;;3.30;;
21183;SDS011;18176;49.502;11.754;2023-04-29T11:16:28;3.42;;;2.92;;
21183;SDS011;18176;49.502;11.754;2023-04-29T11:20:28;4.60;;;3.05;;
21183;SDS011;18176;49.502;11.754;2023-04-29T11:24:28;3.28;;;2.97;;
21183;SDS011;18176;49.502;11.754;2023-04-29T11:28:31;2.70;;;2.50;;
21183;SDS011;18176;49.502;11.754;2023-04-29T11:32:33;4.57;;;2.90;;
21183;SDS011;18176;49.502;11.754;2023-04-29T11:36:36;3.13;;;2.75;;
21183;SDS011;18176;49.502;11.754;2023-04-29T11:40:40;4.07;;;3.00;;
21183;SDS011;18176;49.502;11.754;2023-04-29T11:44:43;2.58;;;2.38;;
21183;SDS011;18176;49.502;11.754;2023-04-29T11:48:47;3.25;;;2.47;;
21183;SDS011;18176;49.502;11.754;2023-04-29T11:52:48;2.60;;;2.40;;
21183;SDS011;18176;49.502;11.754;2023-04-29T11:56:49;2.45;;;2.05;;
21183;SDS011;18176;49.502;11.754;2023-04-29T12:00:55;3.08;;;2.20;;
21183;SDS011;18176;49.502;11.754;2023-04-29T12:04:57;3.20;;;2.70;;
21183;SDS011;18176;49.502;11.754;2023-04-29T12:08:59;4.60;;;2.70;;
21183;SDS011;18176;49.502;11.754;2023-04-29T12:13:00;2.75;;;2.55;;
21183;SDS011;18176;49.502;11.754;2023-04-29T12:17:03;3.97;;;3.03;;
21183;SDS011;18176;49.502;11.754;2023-04-29T12:21:05;4.75;;;2.85;;
21183;SDS011;18176;49.502;11.754;2023-04-29T12:25:06;3.35;;;2.60;;
21183;SDS011;18176;49.502;11.754;2023-04-29T12:29:09;3.35;;;2.45;;
21183;SDS011;18176;49.502;11.754;2023-04-29T12:33:12;2.40;;;2.20;;
21183;SDS011;18176;49.502;11.754;2023-04-29T12:37:18;2.80;;;2.10;;
21183;SDS011;18176;49.502;11.754;2023-04-29T12:41:34;4.15;;;2.10;;
21183;SDS011;18176;49.502;11.754;2023-04-29T12:45:37;4.43;;;2.35;;
21183;SDS011;18176;49.502;11.754;2023-04-29T12:49:43;2.92;;;2.40;;
21183;SDS011;18176;49.502;11.754;2023-04-29T12:53:45;2.38;;;2.17;;
21183;SDS011;18176;49.502;11.754;2023-04-29T12:57:45;2.50;;;2.30;;
21183;SDS011;18176;49.502;11.754;2023-04-29T13:01:46;3.67;;;3.00;;
21183;SDS011;18176;49.502;11.754;2023-04-29T13:05:49;2.40;;;2.20;;
21183;SDS011;18176;49.502;11.754;2023-04-29T13:09:50;2.75;;;2.47;;
21183;SDS011;18176;49.502;11.754;2023-04-29T13:13:50;2.53;;;2.33;;
21183;SDS011;18176;49.502;11.754;2023-04-29T13:17:50;2.60;;;2.40;;
21183;SDS011;18176;49.502;11.754;2023-04-29T13:21:54;2.58;;;2.38;;
21183;SDS011;18176;49.502;11.754;2023-04-29T13:25:54;3.78;;;2.55;;
21183;SDS011;18176;49.502;11.754;2023-04-29T13:29:54;3.90;;;3.13;;
21183;SDS011;18176;49.502;11.754;2023-04-29T13:33:55;3.53;;;3.10;;
21183;SDS011;18176;49.502;11.754;2023-04-29T13:37:57;3.22;;;2.92;;
21183;SDS011;18176;49.502;11.754;2023-04-29T13:41:58;4.13;;;3.30;;
21183;SDS011;18176;49.502;11.754;2023-04-29T13:45:59;5.65;;;3.60;;
21183;SDS011;18176;49.502;11.754;2023-04-29T13:49:59;3.17;;;2.88;;
21183;SDS011;18176;49.502;11.754;2023-04-29T13:54:05;5.10;;;3.10;;
21183;SDS011;18176;49.502;11.754;2023-04-29T13:58:26;2.97;;;2.40;;
21183;SDS011;18176;49.502;11.754;2023-04-29T14:02:46;3.72;;;2.88;;
21183;SDS011;18176;49.502;11.754;2023-04-29T14:06:49;6.22;;;3.05;;
21183;SDS011;18176;49.502;11.754;2023-04-29T14:10:52;3.47;;;3.13;;
21183;SDS011;18176;49.502;11.754;2023-04-29T14:14:53;3.53;;;3.20;;
21183;SDS011;18176;49.502;11.754;2023-04-29T14:18:55;3.25;;;2.95;;
21183;SDS011;18176;49.502;11.754;2023-04-29T14:22:59;3.63;;;3.20;;
21183;SDS011;18176;49.502;11.754;2023-04-29T14:27:02;4.40;;;3.10;;
21183;SDS011;18176;49.502;11.754;2023-04-29T14:31:02;4.60;;;3.35;;
21183;SDS011;18176;49.502;11.754;2023-04-29T14:35:03;3.47;;;3.08;;
21183;SDS011;18176;49.502;11.754;2023-04-29T14:39:04;3.63;;;2.80;;
21183;SDS011;18176;49.502;11.754;2023-04-29T14:43:07;5.65;;;3.03;;
21183;SDS011;18176;49.502;11.754;2023-04-29T14:47:07;3.97;;;2.53;;
21183;SDS011;18176;49.502;11.754;2023-04-29T14:51:08;2.95;;;2.33;;
21183;SDS011;18176;49.502;11.754;2023-04-29T14:55:08;2.30;;;2.10;;
21183;SDS011;18176;49.502;11.754;2023-04-29T14:59:11;3.78;;;2.30;;
21183;SDS011;18176;49.502;11.754;2023-04-29T15:03:12;2.35;;;2.15;;
21183;SDS011;18176;49.502;11.754;2023-04-29T15:07:18;2.80;;;1.92;;
21183;SDS011;18176;49.502;11.754;2023-04-29T15:11:18;3.10;;;2.13;;
21183;SDS011;18176;49.502;11.754;2023-04-29T15:15:22;2.58;;;2.33;;
21183;SDS011;18176;49.502;11.754;2023-04-29T15:19:22;3.22;;;2.53;;
21183;SDS011;18176;49.502;11.754;2023-04-29T15:23:23;2.67;;;2.47;;
21183;SDS011;18176;49.502;11.754;2023-04-29T15:27:23;15.35;;;10.07;;
21183;SDS011;18176;49.502;11.754;2023-04-29T15:31:26;3.38;;;2.75;;
21183;SDS011;18176;49.502;11.754;2023-04-29T15:35:26;2.60;;;2.40;;
21183;SDS011;18176;49.502;11.754;2023-04-29T15:39:27;45.17;;;27.88;;
21183;SDS011;18176;49.502;11.754;2023-04-29T15:43:27;3.13;;;2.70;;
21183;SDS011;18176;49.502;11.754;2023-04-29T15:47:31;4.63;;;3.72;;
21183;SDS011;18176;49.502;11.754;2023-04-29T15:51:31;2.75;;;2.53;;
21183;SDS011;18176;49.502;11.754;2023-04-29T15:55:32;2.53;;;2.33;;
21183;SDS011;18176;49.502;11.754;2023-04-29T15:59:32;2.10;;;1.90;;
21183;SDS011;18176;49.502;11.754;2023-04-29T16:03:35;6.38;;;4.15;;
21183;SDS011;18176;49.502;11.754;2023-04-29T16:07:35;2.90;;;2.40;;
21183;SDS011;18176;49.502;11.754;2023-04-29T16:11:36;4.50;;;4.10;;
21183;SDS011;18176;49.502;11.754;2023-04-29T16:15:36;17.60;;;13.80;;
21183;SDS011;18176;49.502;11.754;2023-04-29T16:19:39;36.65;;;24.75;;
21183;SDS011;18176;49.502;11.754;2023-04-29T16:23:40;19.45;;;13.32;;
21183;SDS011;18176;49.502;11.754;2023-04-29T16:27:40;10.43;;;6.13;;
21183;SDS011;18176;49.502;11.754;2023-04-29T16:31:40;1.30;;;1.20;;
21183;SDS011;18176;49.502;11.754;2023-04-29T16:35:43;1.85;;;1.40;;
21183;SDS011;18176;49.502;11.754;2023-04-29T16:39:43;2.45;;;1.70;;
21183;SDS011;18176;49.502;11.754;2023-04-29T16:43:47;7.35;;;4.10;;
21183;SDS011;18176;49.502;11.754;2023-04-29T16:47:48;4.00;;;1.80;;
21183;SDS011;18176;49.502;11.754;2023-04-29T16:51:52;1.17;;;1.10;;
21183;SDS011;18176;49.502;11.754;2023-04-29T16:55:53;2.80;;;1.70;;
21183;SDS011;18176;49.502;11.754;2023-04-29T16:59:53;1.90;;;1.65;;
21183;SDS011;18176;49.502;11.754;2023-04-29T17:03:53;1.48;;;1.30;;
21183;SDS011;18176;49.502;11.754;2023-04-29T17:07:57;1.58;;;1.20;;
21183;SDS011;18176;49.502;11.754;2023-04-29T17:11:58;1.30;;;1.20;;
21183;SDS011;18176;49.502;11.754;2023-04-29T17:15:59;1.38;;;1.27;;
21183;SDS011;18176;49.502;11.754;2023-04-29T17:20:00;1.50;;;1.40;;
21183;SDS011;18176;49.502;11.754;2023-04-29T17:24:03;1.70;;;1.30;;
21183;SDS011;18176;49.502;11.754;2023-04-29T17:28:03;2.75;;;1.60;;
21183;SDS011;18176;49.502;11.754;2023-04-29T17:32:04;1.40;;;1.30;;
21183;SDS011;18176;49.502;11.754;2023-04-29T17:36:10;2.00;;;1.80;;
21183;SDS011;18176;49.502;11.754;2023-04-29T17:40:13;2.15;;;1.70;;
21183;SDS011;18176;49.502;11.754;2023-04-29T17:44:13;1.90;;;1.70;;
21183;SDS011;18176;49.502;11.754;2023-04-29T17:48:17;1.58;;;1.30;;
21183;SDS011;18176;49.502;11.754;2023-04-29T17:52:18;2.10;;;1.90;;
21183;SDS011;18176;49.502;11.754;2023-04-29T17:56:21;1.73;;;1.60;;
21183;SDS011;18176;49.502;11.754;2023-04-29T18:00:22;2.75;;;1.80;;
21183;SDS011;18176;49.502;11.754;2023-04-29T18:04:23;2.70;;;1.88;;
21183;SDS011;18176;49.502;11.754;2023-04-29T18:08:24;2.00;;;1.80;;
21183;SDS011;18176;49.502;11.754;2023-04-29T18:12:27;1.95;;;1.75;;
21183;SDS011;18176;49.502;11.754;2023-04-29T18:16:28;2.70;;;2.35;;
21183;SDS011;18176;49.502;11.754;2023-04-29T18:20:28;2.53;;;2.10;;
21183;SDS011;18176;49.502;11.754;2023-04-29T18:24:29;4.00;;;2.95;;
21183;SDS011;18176;49.502;11.754;2023-04-29T18:28:31;3.80;;;3.00;;
21183;SDS011;18176;49.502;11.754;2023-04-29T18:32:32;3.03;;;2.70;;
21183;SDS011;18176;49.502;11.754;2023-04-29T18:36:33;4.07;;;2.60;;
21183;SDS011;18176;49.502;11.754;2023-04-29T18:40:33;3.30;;;2.65;;
21183;SDS011;18176;49.502;11.754;2023-04-29T18:44:37;4.27;;;2.80;;
21183;SDS011;18176;49.502;11.754;2023-04-29T18:48:37;3.03;;;2.73;;
21183;SDS011;18176;49.502;11.754;2023-04-29T18:52:38;4.93;;;2.60;;
21183;SDS011;18176;49.502;11.754;2023-04-29T18:56:38;3.43;;;3.00;;
21183;SDS011;18176;49.502;11.754;2023-04-29T19:00:42;3.07;;;2.70;;
21183;SDS011;18176;49.502;11.754;2023-04-29T19:04:42;5.53;;;2.90;;
21183;SDS011;18176;49.502;11.754;2023-04-29T19:08:42;3.47;;;2.90;;
21183;SDS011;18176;49.502;11.754;2023-04-29T19:12:43;5.10;;;2.90;;
21183;SDS011;18176;49.502;11.754;2023-04-29T19:16:46;3.60;;;3.10;;
21183;SDS011;18176;49.502;11.754;2023-04-29T19:20:46;3.00;;;2.57;;
21183;SDS011;18176;49.502;11.754;2023-04-29T19:24:49;3.83;;;3.07;;
21183;SDS011;18176;49.502;11.754;2023-04-29T19:28:49;3.00;;;2.70;;
21183;SDS011;18176;49.502;11.754;2023-04-29T19:32:52;2.78;;;2.42;;
21183;SDS011;18176;49.502;11.754;2023-04-29T19:36:52;3.97;;;3.47;;
21183;SDS011;18176;49.502;11.754;2023-04-29T19:40:53;4.27;;;3.87;;
21183;SDS011;18176;49.502;11.754;2023-04-29T19:44:54;4.87;;;4.20;;
21183;SDS011;18176;49.502;11.754;2023-04-29T19:48:58;4.40;;;3.90;;
21183;SDS011;18176;49.502;11.754;2023-04-29T19:52:58;4.57;;;3.77;;
21183;SDS011;18176;49.502;11.754;2023-04-29T19:56:58;5.27;;;3.90;;
21183;SDS011;18176;49.502;11.754;2023-04-29T20:00:59;7.00;;;4.67;;
21183;SDS011;18176;49.502;11.754;2023-04-29T20:05:04;6.00;;;4.97;;
21183;SDS011;18176;49.502;11.754;2023-04-29T20:09:07;9.03;;;5.40;;
21183;SDS011;18176;49.502;11.754;2023-04-29T20:13:09;9.17;;;6.10;;
21183;SDS011;18176;49.502;11.754;2023-04-29T20:17:11;9.23;;;6.90;;
21183;SDS011;18176;49.502;11.754;2023-04-29T20:21:15;9.10;;;6.70;;
21183;SDS011;18176;49.502;11.754;2023-04-29T20:25:15;8.43;;;5.63;;
21183;SDS011;18176;49.502;11.754;2023-04-29T20:29:16;6.93;;;5.27;;
21183;SDS011;18176;49.502;11.754;2023-04-29T20:33:16;7.23;;;5.87;;
21183;SDS011;18176;49.502;11.754;2023-04-29T20:37:19;8.37;;;7.10;;
21183;SDS011;18176;49.502;11.754;2023-04-29T20:41:25;8.10;;;6.67;;
21183;SDS011;18176;49.502;11.754;2023-04-29T20:45:26;8.40;;;6.70;;
21183;SDS011;18176;49.502;11.754;2023-04-29T20:49:27;7.90;;;6.43;;
21183;SDS011;18176;49.502;11.754;2023-04-29T20:53:30;7.93;;;6.60;;
21183;SDS011;18176;49.502;11.754;2023-04-29T20:57:31;8.97;;;7.30;;
21183;SDS011;18176;49.502;11.754;2023-04-29T21:01:31;9.07;;;7.37;;
21183;SDS011;18176;49.502;11.754;2023-04-29T21:05:33;10.57;;;7.40;;
21183;SDS011;18176;49.502;11.754;2023-04-29T21:09:37;10.03;;;7.13;;
21183;SDS011;18176;49.502;11.754;2023-04-29T21:13:37;9.20;;;7.17;;
21183;SDS011;18176;49.502;11.754;2023-04-29T21:17:38;11.30;;;8.23;;
21183;SDS011;18176;49.502;11.754;2023-04-29T21:21:40;10.47;;;6.93;;
21183;SDS011;18176;49.502;11.754;2023-04-29T21:25:43;9.13;;;7.17;;
21183;SDS011;18176;49.502;11.754;2023-04-29T21:29:43;9.20;;;6.87;;
21183;SDS011;18176;49.502;11.754;2023-04-29T21:33:44;10.13;;;7.40;;
21183;SDS011;18176;49.502;11.754;2023-04-29T21:37:45;9.90;;;7.20;;
21183;SDS011;18176;49.502;11.754;2023-04-29T21:41:48;9.67;;;7.50;;
21183;SDS011;18176;49.502;11.754;2023-04-29T21:45:51;10.17;;;7.50;;
21183;SDS011;18176;49.502;11.754;2023-04-29T21:49:52;8.40;;;6.90;;
21183;SDS011;18176;49.502;11.754;2023-04-29T21:53:53;9.90;;;7.17;;
21183;SDS011;18176;49.502;11.754;2023-04-29T21:57:56;8.67;;;7.03;;
21183;SDS011;18176;49.502;11.754;2023-04-29T22:01:56;8.03;;;6.77;;
21183;SDS011;18176;49.502;11.754;2023-04-29T22:05:59;8.53;;;6.97;;
21183;SDS011;18176;49.502;11.754;2023-04-29T22:10:00;9.40;;;7.70;;
21183;SDS011;18176;49.502;11.754;2023-04-29T22:14:03;8.67;;;7.40;;
21183;SDS011;18176;49.502;11.754;2023-04-29T22:18:03;9.10;;;7.00;;
21183;SDS011;18176;49.502;11.754;2023-04-29T22:22:04;9.00;;;7.10;;
21183;SDS011;18176;49.502;11.754;2023-04-29T22:26:05;9.50;;;7.23;;
21183;SDS011;18176;49.502;11.754;2023-04-29T22:30:08;8.87;;;7.20;;
21183;SDS011;18176;49.502;11.754;2023-04-29T22:34:10;8.27;;;6.80;;
21183;SDS011;18176;49.502;11.754;2023-04-29T22:38:10;8.37;;;7.27;;
21183;SDS011;18176;49.502;11.754;2023-04-29T22:42:10;8.97;;;6.93;;
21183;SDS011;18176;49.502;11.754;2023-04-29T22:46:14;10.53;;;6.77;;
21183;SDS011;18176;49.502;11.754;2023-04-29T22:50:17;10.30;;;7.33;;
21183;SDS011;18176;49.502;11.754;2023-04-29T22:54:17;9.03;;;7.07;;
21183;SDS011;18176;49.502;11.754;2023-04-29T22:58:17;9.43;;;7.50;;
21183;SDS011;18176;49.502;11.754;2023-04-29T23:02:22;8.80;;;7.13;;
21183;SDS011;18176;49.502;11.754;2023-04-29T23:06:25;8.70;;;7.10;;
21183;SDS011;18176;49.502;11.754;2023-04-29T23:10:26;10.03;;;7.27;;
21183;SDS011;18176;49.502;11.754;2023-04-29T23:14:26;8.70;;;7.40;;
21183;SDS011;18176;49.502;11.754;2023-04-29T23:18:29;9.40;;;6.90;;
21183;SDS011;18176;49.502;11.754;2023-04-29T23:22:31;9.20;;;7.77;;
21183;SDS011;18176;49.502;11.754;2023-04-29T23:26:31;10.90;;;7.60;;
21183;SDS011;18176;49.502;11.754;2023-04-29T23:30:31;9.47;;;7.10;;
21183;SDS011;18176;49.502;11.754;2023-04-29T23:34:34;7.77;;;6.27;;
21183;SDS011;18176;49.502;11.754;2023-04-29T23:38:35;9.20;;;7.33;;
21183;SDS011;18176;49.502;11.754;2023-04-29T23:42:36;8.43;;;7.53;;
21183;SDS011;18176;49.502;11.754;2023-04-29T23:46:36;9.37;;;7.27;;
21183;SDS011;18176;49.502;11.754;2023-04-29T23:50:40;8.30;;;7.00;;